Time;durP1;ratioP1;P1;durP2;ratioP2;P2;SDS_P1;SDS_P2;PMS_P1;PMS_P2;Temp;Humidity;BMP_temperature;BMP_pressure;BME280_temperature;BME280_humidity;BME280_pressure;Samples;Min_cycle;Max_cycle;Signal;HPM_P1;HPM_P2
2021/04/22 00:01:54;;;;;;;22.87;4.07;;;;;;;;;;5021447;28;38565;-76
2021/04/22 00:04:21;;;;;;;19.83;4.57;;;;;;;;;;5021339;28;36843;-77
2021/04/22 00:06:49;;;;;;;23.07;4.53;;;;;;;;;;5035928;28;38248;-77
2021/04/22 00:09:15;;;;;;;18.63;4.67;;;;;;;;;;5022447;28;39276;-77
2021/04/22 00:11:42;;;;;;;22.47;4.60;;;;;;;;;;5029951;28;37380;-77
2021/04/22 00:14:08;;;;;;;22.50;5.20;;;;;;;;;;5017241;28;36955;-77
2021/04/22 00:16:35;;;;;;;24.77;5.33;;;;;;;;;;5022048;28;37803;-76
2021/04/22 00:19:01;;;;;;;21.43;4.50;;;;;;;;;;5037019;28;39049;-77
2021/04/22 00:21:28;;;;;;;30.40;5.87;;;;;;;;;;5020432;28;47337;-77
2021/04/22 00:23:54;;;;;;;26.37;4.80;;;;;;;;;;5020079;28;35680;-76
2021/04/22 00:26:21;;;;;;;24.27;4.80;;;;;;;;;;5019349;28;39141;-76
2021/04/22 00:28:47;;;;;;;31.27;5.17;;;;;;;;;;5030709;28;38561;-76
2021/04/22 00:31:13;;;;;;;22.30;4.57;;;;;;;;;;5019211;28;41081;-77
2021/04/22 00:33:40;;;;;;;24.73;4.63;;;;;;;;;;5015729;28;36796;-76
2021/04/22 00:36:07;;;;;;;22.67;4.97;;;;;;;;;;5035250;28;40967;-76
2021/04/22 00:38:33;;;;;;;20.57;5.13;;;;;;;;;;5030123;28;37872;-76
2021/04/22 00:41:00;;;;;;;32.87;4.73;;;;;;;;;;5025519;28;38349;-77
2021/04/22 00:43:26;;;;;;;22.73;4.83;;;;;;;;;;5020915;28;37898;-76
2021/04/22 00:45:55;;;;;;;20.93;5.33;;;;;;;;;;5026198;28;38524;-76
2021/04/22 00:48:25;;;;;;;24.23;5.13;;;;;;;;;;5035223;28;37923;-76
2021/04/22 00:50:53;;;;;;;21.90;4.77;;;;;;;;;;5041995;28;38212;-76
2021/04/22 00:53:20;;;;;;;23.63;5.43;;;;;;;;;;5019692;28;36378;-76
2021/04/22 00:55:47;;;;;;;23.80;5.40;;;;;;;;;;5018986;28;38656;-76
2021/04/22 00:58:14;;;;;;;24.57;5.63;;;;;;;;;;5021658;28;39773;-76
2021/04/22 01:00:44;;;;;;;27.27;5.10;;;;;;;;;;5015374;28;38971;-76
2021/04/22 01:03:11;;;;;;;18.80;4.27;;;;;;;;;;5008405;28;35959;-76
2021/04/22 01:05:40;;;;;;;30.60;5.00;;;;;;;;;;5021146;28;40676;-76
2021/04/22 01:08:06;;;;;;;29.67;5.03;;;;;;;;;;5027597;28;38732;-76
2021/04/22 01:10:33;;;;;;;24.87;5.17;;;;;;;;;;5025035;28;36982;-76
2021/04/22 01:12:59;;;;;;;25.47;4.80;;;;;;;;;;5020207;28;36300;-76
2021/04/22 01:15:27;;;;;;;20.23;4.47;;;;;;;;;;5020923;28;39874;-76
2021/04/22 01:17:54;;;;;;;25.53;5.13;;;;;;;;;;5017469;28;38273;-76
2021/04/22 01:20:22;;;;;;;24.87;4.90;;;;;;;;;;5022392;28;38680;-76
2021/04/22 01:22:49;;;;;;;26.83;4.97;;;;;;;;;;5015570;28;40220;-76
2021/04/22 01:25:17;;;;;;;31.03;5.53;;;;;;;;;;5009780;28;37967;-76
2021/04/22 01:27:44;;;;;;;18.33;4.70;;;;;;;;;;5030525;28;39208;-77
2021/04/22 01:30:13;;;;;;;24.07;4.93;;;;;;;;;;5023421;28;38479;-76
2021/04/22 01:32:39;;;;;;;16.60;4.67;;;;;;;;;;5043575;28;35498;-76
2021/04/22 01:35:07;;;;;;;20.43;5.93;;;;;;;;;;5021172;28;38117;-76
2021/04/22 01:37:33;;;;;;;21.60;4.90;;;;;;;;;;5036593;28;38284;-76
2021/04/22 01:40:00;;;;;;;23.50;4.30;;;;;;;;;;5022734;28;38167;-76
2021/04/22 01:42:26;;;;;;;20.50;3.90;;;;;;;;;;5026900;28;37313;-77
2021/04/22 01:44:53;;;;;;;21.37;4.80;;;;;;;;;;5022097;28;38428;-77
2021/04/22 01:47:19;;;;;;;21.90;4.70;;;;;;;;;;5023955;28;39883;-76
2021/04/22 01:49:45;;;;;;;25.47;5.40;;;;;;;;;;5023306;28;41072;-76
2021/04/22 01:52:12;;;;;;;13.67;3.77;;;;;;;;;;5027627;28;36555;-76
2021/04/22 01:54:38;;;;;;;20.17;5.30;;;;;;;;;;5025728;28;38795;-76
2021/04/22 01:57:05;;;;;;;17.33;4.77;;;;;;;;;;5018614;28;39130;-76
2021/04/22 01:59:31;;;;;;;24.03;5.07;;;;;;;;;;5035411;28;38802;-76
2021/04/22 02:01:57;;;;;;;17.30;4.60;;;;;;;;;;5023634;28;38032;-76
2021/04/22 02:04:24;;;;;;;30.77;5.60;;;;;;;;;;5014962;28;38492;-76
2021/04/22 02:06:50;;;;;;;25.03;5.77;;;;;;;;;;5037493;28;39205;-76
2021/04/22 02:09:17;;;;;;;22.10;4.60;;;;;;;;;;5025136;28;39842;-76
2021/04/22 02:11:43;;;;;;;23.27;4.93;;;;;;;;;;5024757;28;37648;-76
2021/04/22 02:14:10;;;;;;;20.07;4.10;;;;;;;;;;5023025;28;40055;-77
2021/04/22 02:16:37;;;;;;;30.07;5.23;;;;;;;;;;5025770;28;38965;-76
2021/04/22 02:19:04;;;;;;;26.57;4.70;;;;;;;;;;5022949;28;36927;-77
2021/04/22 02:21:31;;;;;;;18.37;5.10;;;;;;;;;;5020637;28;35699;-76
2021/04/22 02:23:57;;;;;;;22.33;4.37;;;;;;;;;;5026895;28;39632;-76
2021/04/22 02:26:24;;;;;;;23.63;5.07;;;;;;;;;;5020762;28;38834;-76
2021/04/22 02:28:50;;;;;;;21.10;4.40;;;;;;;;;;5023923;28;38290;-76
2021/04/22 02:31:16;;;;;;;22.67;4.60;;;;;;;;;;5025679;28;35884;-76
2021/04/22 02:33:43;;;;;;;24.93;5.10;;;;;;;;;;5021160;28;39165;-76
2021/04/22 02:36:09;;;;;;;24.80;4.80;;;;;;;;;;5021443;28;41575;-77
2021/04/22 02:38:36;;;;;;;24.77;5.33;;;;;;;;;;5016069;28;37808;-76
2021/04/22 02:41:02;;;;;;;20.53;4.93;;;;;;;;;;5023021;28;36404;-76
2021/04/22 02:43:28;;;;;;;24.13;5.10;;;;;;;;;;5017006;28;47496;-76
2021/04/22 02:45:55;;;;;;;23.50;5.10;;;;;;;;;;5024457;28;39086;-76
2021/04/22 02:48:25;;;;;;;25.63;7.30;;;;;;;;;;5034670;28;36753;-76
2021/04/22 02:50:53;;;;;;;26.03;5.10;;;;;;;;;;5028550;28;37184;-76
2021/04/22 02:53:20;;;;;;;18.03;4.87;;;;;;;;;;5022205;28;39406;-76
2021/04/22 02:55:47;;;;;;;20.40;4.47;;;;;;;;;;5024412;28;40043;-76
2021/04/22 02:58:14;;;;;;;21.50;4.83;;;;;;;;;;5020670;28;35791;-76
2021/04/22 03:00:40;;;;;;;15.50;4.80;;;;;;;;;;5020702;28;36994;-76
2021/04/22 03:03:07;;;;;;;17.03;4.80;;;;;;;;;;5028051;28;39176;-76
2021/04/22 03:05:35;;;;;;;16.10;4.50;;;;;;;;;;5023014;28;39316;-76
2021/04/22 03:08:01;;;;;;;25.50;6.70;;;;;;;;;;5034545;28;37628;-76
2021/04/22 03:10:28;;;;;;;27.73;4.83;;;;;;;;;;5025263;28;48385;-76
2021/04/22 03:12:54;;;;;;;19.73;6.10;;;;;;;;;;5018649;28;39100;-76
2021/04/22 03:15:21;;;;;;;20.10;5.77;;;;;;;;;;5021602;28;38858;-76
2021/04/22 03:17:48;;;;;;;21.90;6.33;;;;;;;;;;5024494;28;38471;-76
2021/04/22 03:20:16;;;;;;;25.10;6.70;;;;;;;;;;5020260;28;35746;-76
2021/04/22 03:22:43;;;;;;;21.80;5.70;;;;;;;;;;5021626;28;38170;-76
2021/04/22 03:25:10;;;;;;;23.17;6.33;;;;;;;;;;5024054;28;38114;-76
2021/04/22 03:27:36;;;;;;;22.17;5.93;;;;;;;;;;5029301;28;37481;-76
2021/04/22 03:30:05;;;;;;;19.60;5.50;;;;;;;;;;5016594;28;35591;-76
2021/04/22 03:32:31;;;;;;;24.60;5.73;;;;;;;;;;5023779;28;37481;-76
2021/04/22 03:34:57;;;;;;;18.97;5.50;;;;;;;;;;5038088;28;37775;-76
2021/04/22 03:37:24;;;;;;;23.23;5.20;;;;;;;;;;5020789;28;37461;-76
2021/04/22 03:39:50;;;;;;;19.23;5.60;;;;;;;;;;5032648;28;35988;-76
2021/04/22 03:42:17;;;;;;;22.50;6.17;;;;;;;;;;5024351;28;40064;-76
2021/04/22 03:44:44;;;;;;;28.13;6.00;;;;;;;;;;5020761;28;38113;-76
2021/04/22 03:47:11;;;;;;;26.40;5.60;;;;;;;;;;5034742;28;37293;-76
2021/04/22 03:49:38;;;;;;;26.57;6.30;;;;;;;;;;5034739;28;35873;-76
2021/04/22 03:52:05;;;;;;;21.47;5.23;;;;;;;;;;5017933;28;39783;-76
2021/04/22 03:54:31;;;;;;;26.13;5.80;;;;;;;;;;5019040;28;37359;-76
2021/04/22 03:56:58;;;;;;;22.80;5.50;;;;;;;;;;5032849;28;38191;-76
2021/04/22 03:59:25;;;;;;;25.20;4.90;;;;;;;;;;5023441;28;35866;-76
2021/04/22 04:01:51;;;;;;;17.27;5.30;;;;;;;;;;5017872;28;39777;-76
2021/04/22 04:04:17;;;;;;;20.90;4.70;;;;;;;;;;5038206;28;38843;-76
2021/04/22 04:06:44;;;;;;;20.10;5.77;;;;;;;;;;5009670;28;38925;-76
2021/04/22 04:09:10;;;;;;;19.37;4.90;;;;;;;;;;5021231;28;36242;-76
2021/04/22 04:11:36;;;;;;;17.50;5.23;;;;;;;;;;5034383;28;40206;-77
2021/04/22 04:14:03;;;;;;;13.60;4.73;;;;;;;;;;5022061;28;38081;-76
2021/04/22 04:16:29;;;;;;;21.07;5.50;;;;;;;;;;5033024;28;35703;-76
2021/04/22 04:18:56;;;;;;;28.73;4.63;;;;;;;;;;5039204;28;36001;-76
2021/04/22 04:21:22;;;;;;;19.13;5.67;;;;;;;;;;5037802;28;37550;-76
2021/04/22 04:23:49;;;;;;;21.70;5.20;;;;;;;;;;5033188;28;38900;-76
2021/04/22 04:26:15;;;;;;;27.77;5.30;;;;;;;;;;5027622;28;37338;-76
2021/04/22 04:28:42;;;;;;;19.57;5.43;;;;;;;;;;5016854;28;37840;-76
2021/04/22 04:31:08;;;;;;;26.27;5.17;;;;;;;;;;5032601;28;39760;-76
2021/04/22 04:33:34;;;;;;;20.73;5.23;;;;;;;;;;5018154;28;38645;-76
2021/04/22 04:36:01;;;;;;;25.93;5.03;;;;;;;;;;5014652;28;37637;-76
2021/04/22 04:38:27;;;;;;;18.03;4.37;;;;;;;;;;5014556;28;48111;-76
2021/04/22 04:40:53;;;;;;;26.70;6.43;;;;;;;;;;5017359;28;37860;-75
2021/04/22 04:43:20;;;;;;;30.03;6.07;;;;;;;;;;5020087;28;37748;-77
2021/04/22 04:45:46;;;;;;;22.90;5.27;;;;;;;;;;5016376;28;36712;-77
2021/04/22 04:48:13;;;;;;;23.20;6.27;;;;;;;;;;5032361;28;35713;-75
2021/04/22 04:50:39;;;;;;;30.57;5.97;;;;;;;;;;5014249;28;39069;-76
2021/04/22 04:53:06;;;;;;;18.90;5.30;;;;;;;;;;5033196;28;36032;-76
2021/04/22 04:55:32;;;;;;;21.77;6.00;;;;;;;;;;5010828;28;40103;-75
2021/04/22 04:57:58;;;;;;;18.07;4.90;;;;;;;;;;5015283;28;36371;-76
2021/04/22 05:00:25;;;;;;;28.93;7.37;;;;;;;;;;5009686;28;37949;-76
2021/04/22 05:02:52;;;;;;;24.03;6.23;;;;;;;;;;5014646;28;40307;-75
2021/04/22 05:05:18;;;;;;;18.97;5.60;;;;;;;;;;5030527;28;36984;-76
2021/04/22 05:07:45;;;;;;;30.87;5.83;;;;;;;;;;5015087;28;34488;-76
2021/04/22 05:10:12;;;;;;;25.30;5.33;;;;;;;;;;5010987;28;38416;-75
2021/04/22 05:12:38;;;;;;;21.73;5.60;;;;;;;;;;5013206;28;36418;-76
2021/04/22 05:15:06;;;;;;;26.23;5.13;;;;;;;;;;5019312;28;38733;-76
2021/04/22 05:17:33;;;;;;;16.87;4.50;;;;;;;;;;5016301;28;35561;-76
2021/04/22 05:19:59;;;;;;;18.57;4.90;;;;;;;;;;5016212;28;38796;-76
2021/04/22 05:22:25;;;;;;;19.00;4.87;;;;;;;;;;5017676;28;40127;-75
2021/04/22 05:24:52;;;;;;;24.47;4.87;;;;;;;;;;5039334;28;37251;-75
2021/04/22 05:27:18;;;;;;;18.90;4.67;;;;;;;;;;5018940;28;35909;-76
2021/04/22 05:29:45;;;;;;;24.80;5.67;;;;;;;;;;5033648;28;38253;-75
2021/04/22 05:32:11;;;;;;;22.33;5.10;;;;;;;;;;5016751;28;37384;-76
2021/04/22 05:34:37;;;;;;;23.73;5.80;;;;;;;;;;5019787;28;37786;-75
2021/04/22 05:37:04;;;;;;;22.27;5.37;;;;;;;;;;5029171;28;37177;-76
2021/04/22 05:39:30;;;;;;;32.47;6.87;;;;;;;;;;5037202;28;39803;-75
2021/04/22 05:41:58;;;;;;;24.17;5.77;;;;;;;;;;5029782;28;38724;-75
2021/04/22 05:44:25;;;;;;;26.43;5.10;;;;;;;;;;5039739;28;38666;-76
2021/04/22 05:46:52;;;;;;;19.27;4.23;;;;;;;;;;5019646;28;35883;-76
2021/04/22 05:49:18;;;;;;;21.60;4.57;;;;;;;;;;5022696;28;37895;-76
2021/04/22 05:51:44;;;;;;;18.47;4.10;;;;;;;;;;5032484;28;37626;-76
2021/04/22 05:54:11;;;;;;;15.57;3.67;;;;;;;;;;5018888;28;37263;-76
2021/04/22 05:56:38;;;;;;;21.10;4.30;;;;;;;;;;5017423;28;36604;-77
2021/04/22 05:59:05;;;;;;;20.77;4.50;;;;;;;;;;5034054;28;37537;-77
2021/04/22 06:01:31;;;;;;;22.37;7.33;;;;;;;;;;5013766;28;39140;-76
2021/04/22 06:03:58;;;;;;;26.67;7.83;;;;;;;;;;5037031;28;37314;-76
2021/04/22 06:06:24;;;;;;;25.83;8.10;;;;;;;;;;5018268;28;37864;-75
2021/04/22 06:08:51;;;;;;;19.17;6.77;;;;;;;;;;5017848;28;39840;-77
2021/04/22 06:11:17;;;;;;;24.27;7.83;;;;;;;;;;4989401;28;38627;-76
2021/04/22 06:13:44;;;;;;;24.23;5.93;;;;;;;;;;5020179;28;37788;-77
2021/04/22 06:16:10;;;;;;;21.43;5.90;;;;;;;;;;5023802;28;35300;-77
2021/04/22 06:18:37;;;;;;;18.40;5.10;;;;;;;;;;5019980;28;39201;-77
2021/04/22 06:21:03;;;;;;;19.77;4.50;;;;;;;;;;5021158;28;37629;-77
2021/04/22 06:23:29;;;;;;;19.53;4.40;;;;;;;;;;5037264;28;35322;-75
2021/04/22 06:25:56;;;;;;;18.50;3.77;;;;;;;;;;5021995;28;35336;-76
2021/04/22 06:28:22;;;;;;;14.93;3.53;;;;;;;;;;5014507;28;38820;-76
2021/04/22 06:30:49;;;;;;;18.47;3.13;;;;;;;;;;5024537;28;38179;-76
2021/04/22 06:33:16;;;;;;;16.03;3.33;;;;;;;;;;5024538;28;37417;-76
2021/04/22 06:35:42;;;;;;;25.10;3.53;;;;;;;;;;5024091;28;37647;-78
2021/04/22 06:38:09;;;;;;;19.03;4.73;;;;;;;;;;5020853;28;37955;-75
2021/04/22 06:40:35;;;;;;;16.47;3.10;;;;;;;;;;5021586;28;39261;-75
2021/04/22 06:43:02;;;;;;;13.30;2.87;;;;;;;;;;5024834;28;37555;-77
2021/04/22 06:45:28;;;;;;;17.83;3.40;;;;;;;;;;5016984;28;47215;-78
2021/04/22 06:47:54;;;;;;;15.57;3.17;;;;;;;;;;5015950;28;38161;-76
2021/04/22 06:50:22;;;;;;;14.60;3.10;;;;;;;;;;5018801;28;37987;-77
2021/04/22 06:52:49;;;;;;;18.73;4.10;;;;;;;;;;5032912;28;38903;-77
2021/04/22 06:55:17;;;;;;;13.07;3.40;;;;;;;;;;5025537;28;37119;-77
2021/04/22 06:57:43;;;;;;;26.67;3.70;;;;;;;;;;5024565;28;38191;-77
2021/04/22 07:00:11;;;;;;;18.93;3.67;;;;;;;;;;5015675;28;39816;-75
2021/04/22 07:02:38;;;;;;;15.53;2.60;;;;;;;;;;5024742;28;38364;-76
2021/04/22 07:05:05;;;;;;;17.07;4.37;;;;;;;;;;5021438;28;36773;-77
2021/04/22 07:07:32;;;;;;;13.43;3.13;;;;;;;;;;5040405;28;38805;-77
2021/04/22 07:09:58;;;;;;;12.97;2.83;;;;;;;;;;5026943;28;39719;-76
2021/04/22 07:12:25;;;;;;;9.53;2.30;;;;;;;;;;5017712;28;38381;-77
2021/04/22 07:14:51;;;;;;;12.87;2.40;;;;;;;;;;5018997;28;36060;-77
2021/04/22 07:17:18;;;;;;;19.93;4.33;;;;;;;;;;5023315;28;37829;-76
2021/04/22 07:19:44;;;;;;;14.50;3.00;;;;;;;;;;5018404;28;40924;-76
2021/04/22 07:22:11;;;;;;;21.40;3.00;;;;;;;;;;5036156;28;38471;-76
2021/04/22 07:24:39;;;;;;;14.47;2.77;;;;;;;;;;5040171;28;35977;-76
2021/04/22 07:27:07;;;;;;;20.43;2.73;;;;;;;;;;5025640;28;39140;-76
2021/04/22 07:29:33;;;;;;;13.67;3.00;;;;;;;;;;5018379;28;39144;-76
2021/04/22 07:32:00;;;;;;;15.60;3.27;;;;;;;;;;5018818;28;39163;-76
2021/04/22 07:34:26;;;;;;;15.90;2.10;;;;;;;;;;5017650;28;35615;-76
2021/04/22 07:36:55;;;;;;;12.77;2.80;;;;;;;;;;5034395;28;39385;-76
2021/04/22 07:39:21;;;;;;;20.20;2.57;;;;;;;;;;5041036;28;39110;-76
2021/04/22 07:41:48;;;;;;;10.17;2.23;;;;;;;;;;5020805;28;38989;-76
2021/04/22 07:44:14;;;;;;;11.70;2.03;;;;;;;;;;5019372;28;37014;-76
2021/04/22 07:46:41;;;;;;;13.23;2.45;;;;;;;;;;5017134;28;38068;-76
2021/04/22 07:49:07;;;;;;;22.13;2.63;;;;;;;;;;5015279;28;39459;-77
2021/04/22 07:51:33;;;;;;;13.20;2.70;;;;;;;;;;5016088;28;39553;-76
2021/04/22 07:54:00;;;;;;;12.57;2.50;;;;;;;;;;5037046;28;36648;-76
2021/04/22 07:56:26;;;;;;;14.67;3.10;;;;;;;;;;5024462;28;39045;-76
2021/04/22 07:58:53;;;;;;;14.43;2.47;;;;;;;;;;5020503;28;37686;-77
2021/04/22 08:01:19;;;;;;;15.87;2.47;;;;;;;;;;5020786;28;39588;-76
2021/04/22 08:03:45;;;;;;;10.33;2.10;;;;;;;;;;5041807;28;35840;-76
2021/04/22 08:06:12;;;;;;;9.40;2.20;;;;;;;;;;5025740;28;38736;-76
2021/04/22 08:08:38;;;;;;;14.50;3.00;;;;;;;;;;5025344;28;38595;-76
2021/04/22 08:11:07;;;;;;;12.25;2.15;;;;;;;;;;5023015;28;39663;-76
2021/04/22 08:13:33;;;;;;;12.77;2.27;;;;;;;;;;5021972;28;35650;-76
2021/04/22 08:16:00;;;;;;;12.20;2.70;;;;;;;;;;5037613;28;37816;-77
2021/04/22 08:18:27;;;;;;;11.45;2.20;;;;;;;;;;5038021;28;37803;-76
2021/04/22 08:20:56;;;;;;;11.95;2.65;;;;;;;;;;5040699;28;38502;-76
2021/04/22 08:23:24;;;;;;;10.25;2.42;;;;;;;;;;5017179;28;37188;-75
2021/04/22 08:25:53;;;;;;;9.88;2.20;;;;;;;;;;5021592;28;39277;-75
2021/04/22 08:28:20;;;;;;;7.88;1.80;;;;;;;;;;5025511;28;37894;-76
2021/04/22 08:30:55;;;;;;;11.30;2.80;;;;;;;;;;5034685;28;37852;-76
2021/04/22 08:33:22;;;;;;;10.85;2.25;;;;;;;;;;5022638;28;36952;-75
2021/04/22 08:35:49;;;;;;;10.35;2.55;;;;;;;;;;5033878;28;38923;-75
2021/04/22 08:38:16;;;;;;;5.65;2.20;;;;;;;;;;5020247;28;38014;-75
2021/04/22 08:40:43;;;;;;;13.35;2.65;;;;;;;;;;5018775;28;38968;-74
2021/04/22 08:43:10;;;;;;;9.80;2.30;;;;;;;;;;5031733;28;35702;-75
2021/04/22 08:45:37;;;;;;;12.52;2.40;;;;;;;;;;5015416;28;38957;-75
2021/04/22 08:48:03;;;;;;;11.00;1.88;;;;;;;;;;5020874;28;37509;-75
2021/04/22 08:50:31;;;;;;;12.10;2.38;;;;;;;;;;5017888;28;37443;-75
2021/04/22 08:52:59;;;;;;;11.75;2.33;;;;;;;;;;5015202;28;36605;-76
2021/04/22 08:55:28;;;;;;;10.75;1.73;;;;;;;;;;5030365;28;37664;-75
2021/04/22 08:57:54;;;;;;;9.63;2.42;;;;;;;;;;5023583;28;38755;-76
2021/04/22 09:00:24;;;;;;;7.22;2.05;;;;;;;;;;5020034;28;38264;-76
2021/04/22 09:02:50;;;;;;;11.93;2.25;;;;;;;;;;5019726;28;36455;-75
2021/04/22 09:05:17;;;;;;;11.52;2.50;;;;;;;;;;5017450;28;38953;-76
2021/04/22 09:07:43;;;;;;;8.32;2.03;;;;;;;;;;5024529;28;39729;-76
2021/04/22 09:10:11;;;;;;;9.88;2.28;;;;;;;;;;5037346;28;37247;-75
2021/04/22 09:12:38;;;;;;;7.43;1.80;;;;;;;;;;5019993;28;38415;-75
2021/04/22 09:15:13;;;;;;;12.40;2.60;;;;;;;;;;5021664;28;40061;-76
2021/04/22 09:17:41;;;;;;;11.43;1.98;;;;;;;;;;5030079;28;40052;-75
2021/04/22 09:20:09;;;;;;;7.15;2.17;;;;;;;;;;5021901;28;38723;-76
2021/04/22 09:22:39;;;;;;;9.25;1.83;;;;;;;;;;5016958;28;36566;-76
2021/04/22 09:25:12;;;;;;;10.80;2.28;;;;;;;;;;5002594;28;40998;-77
2021/04/22 09:27:38;;;;;;;10.68;2.33;;;;;;;;;;5021746;28;37745;-76
2021/04/22 09:30:05;;;;;;;11.75;2.47;;;;;;;;;;5033160;28;37574;-76
2021/04/22 09:32:32;;;;;;;10.85;2.63;;;;;;;;;;5016419;28;37473;-76
2021/04/22 09:35:00;;;;;;;8.82;2.90;;;;;;;;;;5021070;28;38784;-76
2021/04/22 09:37:56;;;;;;;18.15;2.90;;;;;;;;;;5031500;28;37718;-76
2021/04/22 09:40:30;;;;;;;11.57;2.92;;;;;;;;;;5016945;28;40684;-78
2021/04/22 09:42:57;;;;;;;10.18;2.30;;;;;;;;;;5016949;28;36542;-78
2021/04/22 09:45:25;;;;;;;8.95;2.72;;;;;;;;;;5019416;28;39434;-77
2021/04/22 09:47:52;;;;;;;10.82;2.63;;;;;;;;;;5023989;28;40229;-77
2021/04/22 09:50:21;;;;;;;10.35;2.30;;;;;;;;;;5024335;28;37197;-77
2021/04/22 09:52:50;;;;;;;9.15;2.20;;;;;;;;;;5027148;28;38803;-77
2021/04/22 09:55:18;;;;;;;7.95;2.60;;;;;;;;;;5025004;28;38757;-78
2021/04/22 09:57:46;;;;;;;11.30;2.40;;;;;;;;;;5023309;28;39138;-77
2021/04/22 10:00:15;;;;;;;9.40;2.28;;;;;;;;;;5023140;28;38067;-77
2021/04/22 10:02:45;;;;;;;9.98;3.13;;;;;;;;;;5042983;28;36192;-77
2021/04/22 10:05:19;;;;;;;7.70;2.60;;;;;;;;;;5029959;28;39009;-78
2021/04/22 10:07:45;;;;;;;12.02;2.33;;;;;;;;;;5026610;28;38270;-78
2021/04/22 10:10:30;;;;;;;10.32;2.30;;;;;;;;;;5023283;28;39187;-77
2021/04/22 10:13:00;;;;;;;15.80;2.83;;;;;;;;;;5031725;28;35741;-77
2021/04/22 10:15:27;;;;;;;11.25;2.38;;;;;;;;;;5022113;28;47479;-76
2021/04/22 10:17:53;;;;;;;11.70;2.80;;;;;;;;;;5022727;28;39176;-77
2021/04/22 10:20:21;;;;;;;10.32;2.70;;;;;;;;;;5025315;28;38350;-77
2021/04/22 10:22:48;;;;;;;9.50;2.65;;;;;;;;;;5041591;28;37498;-77
2021/04/22 10:25:20;;;;;;;11.05;2.33;;;;;;;;;;5018855;28;40061;-78
2021/04/22 10:27:46;;;;;;;9.37;2.40;;;;;;;;;;5017057;28;38916;-78
2021/04/22 10:30:14;;;;;;;11.88;2.30;;;;;;;;;;5019411;28;38668;-78
2021/04/22 10:32:42;;;;;;;11.88;3.00;;;;;;;;;;5028618;28;35943;-77
2021/04/22 10:35:11;;;;;;;9.65;2.30;;;;;;;;;;5026101;28;39168;-77
2021/04/22 10:37:39;;;;;;;10.90;2.40;;;;;;;;;;5022549;28;38006;-76
2021/04/22 10:40:06;;;;;;;7.38;2.20;;;;;;;;;;5030549;28;38856;-79
2021/04/22 10:42:33;;;;;;;10.18;2.35;;;;;;;;;;5027462;28;37009;-78
2021/04/22 10:45:02;;;;;;;9.68;2.28;;;;;;;;;;5028318;28;39408;-80
2021/04/22 10:47:28;;;;;;;13.57;2.60;;;;;;;;;;5047590;28;47061;-80
2021/04/22 10:49:55;;;;;;;10.98;1.88;;;;;;;;;;5025090;28;41260;-79
2021/04/22 10:52:21;;;;;;;10.25;2.28;;;;;;;;;;5044815;28;36861;-80
2021/04/22 10:54:50;;;;;;;9.77;2.88;;;;;;;;;;5029977;28;39134;-78
2021/04/22 10:57:18;;;;;;;15.07;2.72;;;;;;;;;;5030167;28;38646;-80
2021/04/22 10:59:45;;;;;;;10.02;2.30;;;;;;;;;;5030643;28;39272;-80
2021/04/22 11:02:23;;;;;;;7.10;2.05;;;;;;;;;;5031009;28;35881;-79
2021/04/22 11:04:50;;;;;;;6.63;2.10;;;;;;;;;;5029458;28;40096;-79
2021/04/22 11:07:20;;;;;;;12.65;2.72;;;;;;;;;;5024254;28;38078;-79
2021/04/22 11:09:47;;;;;;;11.18;2.47;;;;;;;;;;5038391;28;39788;-78
2021/04/22 11:12:21;;;;;;;16.50;3.00;;;;;;;;;;5033708;28;37203;-78
2021/04/22 11:14:51;;;;;;;9.75;2.63;;;;;;;;;;5043559;28;38163;-79
2021/04/22 11:17:18;;;;;;;12.52;2.60;;;;;;;;;;5021849;28;39473;-78
2021/04/22 11:19:45;;;;;;;13.30;2.30;;;;;;;;;;5020287;28;37495;-77
2021/04/22 11:22:15;;;;;;;12.07;2.00;;;;;;;;;;5041459;28;38454;-77
2021/04/22 11:24:43;;;;;;;10.93;2.78;;;;;;;;;;5036758;28;38120;-78
2021/04/22 11:27:11;;;;;;;12.23;2.97;;;;;;;;;;5034444;28;37688;-78
2021/04/22 11:29:48;;;;;;;9.90;2.15;;;;;;;;;;5021571;28;38757;-78
2021/04/22 11:32:35;;;;;;;9.18;2.38;;;;;;;;;;5035370;28;36114;-78
2021/04/22 11:35:13;;;;;;;8.57;2.65;;;;;;;;;;5036635;28;39008;-78
2021/04/22 11:38:09;;;;;;;9.45;2.60;;;;;;;;;;5026467;28;45975;-78
2021/04/22 11:40:35;;;;;;;13.98;2.78;;;;;;;;;;5004987;28;48803;-78
2021/04/22 11:43:05;;;;;;;9.30;2.40;;;;;;;;;;5011071;28;36176;-78
2021/04/22 11:45:32;;;;;;;8.23;1.90;;;;;;;;;;5044044;28;38768;-78
2021/04/22 11:48:01;;;;;;;14.07;2.63;;;;;;;;;;5030125;28;37694;-78
2021/04/22 11:50:30;;;;;;;12.80;2.40;;;;;;;;;;5049523;28;47602;-77
2021/04/22 11:52:57;;;;;;;9.88;2.20;;;;;;;;;;5034373;28;36975;-79
2021/04/22 11:55:25;;;;;;;12.32;2.30;;;;;;;;;;5049645;28;35873;-78
2021/04/22 11:57:51;;;;;;;8.35;2.42;;;;;;;;;;5030909;28;39106;-79
2021/04/22 12:00:18;;;;;;;13.98;2.30;;;;;;;;;;5042880;28;37970;-79
2021/04/22 12:02:49;;;;;;;14.32;2.85;;;;;;;;;;5017960;28;35856;-80
2021/04/22 12:05:16;;;;;;;17.17;2.83;;;;;;;;;;5035893;28;39145;-80
2021/04/22 12:07:44;;;;;;;10.70;2.30;;;;;;;;;;5024624;28;38067;-78
2021/04/22 12:10:13;;;;;;;10.40;2.67;;;;;;;;;;5041491;28;37827;-78
2021/04/22 12:12:39;;;;;;;11.02;3.10;;;;;;;;;;5039245;28;35767;-77
2021/04/22 12:15:06;;;;;;;8.75;3.03;;;;;;;;;;5032260;28;38412;-78
2021/04/22 12:17:34;;;;;;;13.13;2.92;;;;;;;;;;5017376;28;38837;-77
2021/04/22 12:20:06;;;;;;;12.90;2.70;;;;;;;;;;5017847;28;37175;-77
2021/04/22 12:22:36;;;;;;;7.78;2.60;;;;;;;;;;5019232;28;46998;-77
2021/04/22 12:25:05;;;;;;;9.65;2.03;;;;;;;;;;5015880;28;40015;-78
2021/04/22 12:27:34;;;;;;;11.40;2.53;;;;;;;;;;5029752;28;47325;-78
2021/04/22 12:30:15;;;;;;;9.73;2.55;;;;;;;;;;5024038;28;37808;-79
2021/04/22 12:33:09;;;;;;;11.48;2.17;;;;;;;;;;5042143;28;49025;-78
2021/04/22 12:35:37;;;;;;;5.18;1.77;;;;;;;;;;4994456;28;49143;-78
2021/04/22 12:38:14;;;;;;;8.68;2.15;;;;;;;;;;5021611;28;38172;-78
2021/04/22 12:40:40;;;;;;;9.15;2.20;;;;;;;;;;5015719;28;37414;-78
2021/04/22 12:43:07;;;;;;;6.65;1.80;;;;;;;;;;5023655;28;36907;-78
2021/04/22 12:45:37;;;;;;;10.23;2.35;;;;;;;;;;5006322;28;38035;-77
2021/04/22 12:48:05;;;;;;;8.32;2.42;;;;;;;;;;5025499;28;39805;-78
2021/04/22 12:50:33;;;;;;;12.77;2.60;;;;;;;;;;5019314;28;37704;-77
2021/04/22 12:53:26;;;;;;;7.13;2.22;;;;;;;;;;5007897;28;37847;-78
2021/04/22 12:55:57;;;;;;;13.18;2.33;;;;;;;;;;5018825;28;48434;-79
2021/04/22 12:58:27;;;;;;;10.57;2.20;;;;;;;;;;5017272;28;37176;-78
2021/04/22 13:00:55;;;;;;;6.25;2.03;;;;;;;;;;5019795;28;41563;-79
2021/04/22 13:03:21;;;;;;;11.68;2.75;;;;;;;;;;5035815;28;36613;-78
2021/04/22 13:05:50;;;;;;;10.15;2.40;;;;;;;;;;5011229;28;38791;-79
2021/04/22 13:08:16;;;;;;;6.43;2.10;;;;;;;;;;5008554;28;37811;-78
2021/04/22 13:10:44;;;;;;;10.73;2.65;;;;;;;;;;5037060;28;37228;-78
2021/04/22 13:13:11;;;;;;;9.57;2.08;;;;;;;;;;5018801;28;36922;-78
2021/04/22 13:15:37;;;;;;;13.00;2.05;;;;;;;;;;5018478;28;37487;-76
2021/04/22 13:18:10;;;;;;;11.20;1.77;;;;;;;;;;5019005;28;38688;-78
2021/04/22 13:20:38;;;;;;;;;;;;;;;;;;5012223;28;39030;-78
2021/04/22 13:23:05;;;;;;;11.57;2.45;;;;;;;;;;5015766;28;38253;-77
2021/04/22 13:25:32;;;;;;;8.95;2.22;;;;;;;;;;5032659;28;39646;-77
2021/04/22 13:28:29;;;;;;;11.38;2.13;;;;;;;;;;5019960;28;38475;-78
2021/04/22 13:30:56;;;;;;;9.55;2.67;;;;;;;;;;5001503;28;47385;-77
2021/04/22 13:33:24;;;;;;;8.25;1.70;;;;;;;;;;5020670;28;36886;-77
2021/04/22 13:35:59;;;;;;;12.20;2.75;;;;;;;;;;5020193;28;40693;-78
2021/04/22 13:38:26;;;;;;;11.15;2.20;;;;;;;;;;5035868;28;38059;-76
2021/04/22 13:40:52;;;;;;;10.02;2.13;;;;;;;;;;5021535;28;37912;-78
2021/04/22 13:43:19;;;;;;;9.30;1.88;;;;;;;;;;5020191;28;35948;-78
2021/04/22 13:45:48;;;;;;;9.43;2.83;;;;;;;;;;5022755;28;37871;-78
2021/04/22 13:48:16;;;;;;;10.02;2.70;;;;;;;;;;5021580;28;38014;-79
2021/04/22 13:50:44;;;;;;;11.40;2.88;;;;;;;;;;5019796;28;39885;-78
2021/04/22 13:53:10;;;;;;;11.13;1.95;;;;;;;;;;5025985;28;37895;-78
2021/04/22 13:55:49;;;;;;;14.18;2.13;;;;;;;;;;5020992;28;37400;-78
2021/04/22 13:58:26;;;;;;;10.07;2.00;;;;;;;;;;5019524;28;38865;-78
2021/04/22 14:00:52;;;;;;;9.45;2.10;;;;;;;;;;5038438;28;37495;-78
2021/04/22 14:03:19;;;;;;;11.45;2.80;;;;;;;;;;5026999;28;35776;-77
2021/04/22 14:05:45;;;;;;;7.70;1.80;;;;;;;;;;5020781;28;39330;-78
2021/04/22 14:08:12;;;;;;;9.88;2.53;;;;;;;;;;5036846;28;37795;-80
2021/04/22 14:10:40;;;;;;;11.73;2.30;;;;;;;;;;5015894;28;38291;-78
2021/04/22 14:13:23;;;;;;;12.00;1.90;;;;;;;;;;5020428;28;38477;-78
2021/04/22 14:15:49;;;;;;;9.85;2.13;;;;;;;;;;5013056;28;37923;-78
2021/04/22 14:18:16;;;;;;;9.63;2.25;;;;;;;;;;5018791;28;38180;-77
2021/04/22 14:20:42;;;;;;;9.15;2.53;;;;;;;;;;5038964;28;41447;-77
2021/04/22 14:23:08;;;;;;;7.75;1.90;;;;;;;;;;5022067;28;36138;-78
2021/04/22 14:25:35;;;;;;;9.80;2.75;;;;;;;;;;5040119;28;37804;-77
2021/04/22 14:28:01;;;;;;;9.80;2.35;;;;;;;;;;5034984;28;39337;-77
2021/04/22 14:30:28;;;;;;;7.35;2.10;;;;;;;;;;5021787;28;47002;-77
2021/04/22 14:32:54;;;;;;;5.53;1.80;;;;;;;;;;5026344;28;36765;-78
2021/04/22 14:35:21;;;;;;;10.55;1.67;;;;;;;;;;5018532;28;39045;-77
2021/04/22 14:37:50;;;;;;;6.43;1.95;;;;;;;;;;5033612;28;39275;-78